sensor_id;sensor_type;location;lat;lon;timestamp;noise_LAeq;noise_LA_min;noise_LA_max;noise_LA01;noise_LA95
40465;Laerm;30489;48.982;8.394;2022-10-19T00:00:43;38.76;36.20;41.14;;
40465;Laerm;30489;48.982;8.394;2022-10-19T00:02:53;38.75;35.66;41.38;;
40465;Laerm;30489;48.982;8.394;2022-10-19T00:05:04;38.76;36.10;42.22;;
40465;Laerm;30489;48.982;8.394;2022-10-19T00:07:14;38.75;35.66;44.11;;
40465;Laerm;30489;48.982;8.394;2022-10-19T00:09:24;38.70;35.94;40.62;;
40465;Laerm;30489;48.982;8.394;2022-10-19T00:11:36;38.73;35.66;41.14;;
40465;Laerm;30489;48.982;8.394;2022-10-19T00:13:46;38.65;35.36;41.14;;
40465;Laerm;30489;48.982;8.394;2022-10-19T00:15:56;38.69;35.36;41.06;;
40465;Laerm;30489;48.982;8.394;2022-10-19T00:18:07;38.69;35.66;40.98;;
40465;Laerm;30489;48.982;8.394;2022-10-19T00:20:17;38.64;35.36;40.89;;
40465;Laerm;30489;48.982;8.394;2022-10-19T00:22:28;38.70;35.66;41.75;;
40465;Laerm;30489;48.982;8.394;2022-10-19T00:24:38;40.73;35.66;71.15;;
40465;Laerm;30489;48.982;8.394;2022-10-19T00:26:48;40.64;33.90;67.62;;
40465;Laerm;30489;48.982;8.394;2022-10-19T00:28:59;39.57;35.66;64.53;;
40465;Laerm;30489;48.982;8.394;2022-10-19T00:31:10;39.00;35.36;55.37;;
40465;Laerm;30489;48.982;8.394;2022-10-19T00:33:21;40.85;32.93;65.79;;
40465;Laerm;30489;48.982;8.394;2022-10-19T00:35:31;38.93;35.36;48.99;;
40465;Laerm;30489;48.982;8.394;2022-10-19T00:37:42;38.99;35.66;49.90;;
40465;Laerm;30489;48.982;8.394;2022-10-19T00:39:52;39.25;35.94;58.24;;
40465;Laerm;30489;48.982;8.394;2022-10-19T00:42:02;39.44;35.04;61.86;;
40465;Laerm;30489;48.982;8.394;2022-10-19T00:46:25;39.28;35.66;59.78;;
40465;Laerm;30489;48.982;8.394;2022-10-19T00:48:35;40.12;36.20;45.75;;
40465;Laerm;30489;48.982;8.394;2022-10-19T00:50:46;40.46;35.36;66.50;;
40465;Laerm;30489;48.982;8.394;2022-10-19T00:52:58;40.22;36.20;50.96;;
40465;Laerm;30489;48.982;8.394;2022-10-19T00:55:08;39.40;35.66;55.56;;
40465;Laerm;30489;48.982;8.394;2022-10-19T00:57:19;39.72;35.36;56.22;;
40465;Laerm;30489;48.982;8.394;2022-10-19T00:59:30;39.48;35.66;57.47;;
40465;Laerm;30489;48.982;8.394;2022-10-19T01:01:41;39.66;35.01;60.94;;
40465;Laerm;30489;48.982;8.394;2022-10-19T01:03:52;39.70;34.69;63.57;;
40465;Laerm;30489;48.982;8.394;2022-10-19T01:06:03;39.72;35.66;67.32;;
40465;Laerm;30489;48.982;8.394;2022-10-19T01:08:13;39.15;35.66;49.72;;
40465;Laerm;30489;48.982;8.394;2022-10-19T01:10:26;38.97;35.66;48.96;;
40465;Laerm;30489;48.982;8.394;2022-10-19T01:17:26;39.27;35.36;43.14;;
40465;Laerm;30489;48.982;8.394;2022-10-19T01:24:25;38.99;35.36;48.83;;
40465;Laerm;30489;48.982;8.394;2022-10-19T01:31:17;38.94;35.66;41.68;;
40465;Laerm;30489;48.982;8.394;2022-10-19T01:33:34;39.16;36.20;54.74;;
40465;Laerm;30489;48.982;8.394;2022-10-19T01:35:51;39.75;35.01;64.95;;
40465;Laerm;30489;48.982;8.394;2022-10-19T01:38:11;38.90;35.94;54.17;;
40465;Laerm;30489;48.982;8.394;2022-10-19T01:40:37;39.60;35.94;64.38;;
40465;Laerm;30489;48.982;8.394;2022-10-19T01:42:54;39.71;35.04;65.77;;
40465;Laerm;30489;48.982;8.394;2022-10-19T01:45:20;38.73;35.66;44.80;;
40465;Laerm;30489;48.982;8.394;2022-10-19T01:47:36;38.83;35.94;45.94;;
40465;Laerm;30489;48.982;8.394;2022-10-19T01:52:30;38.82;35.36;53.62;;
40465;Laerm;30489;48.982;8.394;2022-10-19T01:54:42;38.75;35.04;41.22;;
40465;Laerm;30489;48.982;8.394;2022-10-19T01:56:54;38.71;35.66;47.02;;
40465;Laerm;30489;48.982;8.394;2022-10-19T01:59:07;38.74;35.36;55.11;;
40465;Laerm;30489;48.982;8.394;2022-10-19T02:01:18;38.65;35.36;40.98;;
40465;Laerm;30489;48.982;8.394;2022-10-19T02:03:30;38.63;35.36;40.98;;
40465;Laerm;30489;48.982;8.394;2022-10-19T02:05:41;38.62;35.66;40.71;;
40465;Laerm;30489;48.982;8.394;2022-10-19T02:08:00;38.64;35.94;40.89;;
40465;Laerm;30489;48.982;8.394;2022-10-19T02:10:11;38.60;35.66;44.43;;
40465;Laerm;30489;48.982;8.394;2022-10-19T02:12:22;38.67;35.36;42.41;;
40465;Laerm;30489;48.982;8.394;2022-10-19T02:14:34;38.65;35.66;43.04;;
40465;Laerm;30489;48.982;8.394;2022-10-19T02:16:46;38.89;35.66;53.48;;
40465;Laerm;30489;48.982;8.394;2022-10-19T02:18:59;38.81;35.36;50.25;;
40465;Laerm;30489;48.982;8.394;2022-10-19T02:21:10;39.34;34.69;64.06;;
40465;Laerm;30489;48.982;8.394;2022-10-19T02:23:22;39.89;35.66;67.25;;
40465;Laerm;30489;48.982;8.394;2022-10-19T02:25:34;39.84;35.04;62.52;;
40465;Laerm;30489;48.982;8.394;2022-10-19T02:27:45;38.86;35.04;51.84;;
40465;Laerm;30489;48.982;8.394;2022-10-19T02:29:55;38.79;35.04;55.89;;
40465;Laerm;30489;48.982;8.394;2022-10-19T02:32:05;38.79;35.36;51.04;;
40465;Laerm;30489;48.982;8.394;2022-10-19T02:34:16;38.68;35.36;45.48;;
40465;Laerm;30489;48.982;8.394;2022-10-19T02:36:26;38.79;35.94;53.94;;
40465;Laerm;30489;48.982;8.394;2022-10-19T02:38:36;38.67;35.36;48.39;;
40465;Laerm;30489;48.982;8.394;2022-10-19T02:40:48;38.74;34.69;51.70;;
40465;Laerm;30489;48.982;8.394;2022-10-19T02:43:02;38.81;35.04;43.54;;
40465;Laerm;30489;48.982;8.394;2022-10-19T02:47:25;38.80;35.94;46.73;;
40465;Laerm;30489;48.982;8.394;2022-10-19T02:49:36;38.81;35.36;42.65;;
40465;Laerm;30489;48.982;8.394;2022-10-19T02:52:01;38.65;35.04;43.54;;
40465;Laerm;30489;48.982;8.394;2022-10-19T02:54:12;38.75;35.66;42.03;;
40465;Laerm;30489;48.982;8.394;2022-10-19T02:56:22;38.68;35.36;41.06;;
40465;Laerm;30489;48.982;8.394;2022-10-19T02:58:32;38.69;35.66;40.80;;
40465;Laerm;30489;48.982;8.394;2022-10-19T03:00:42;38.71;35.66;40.89;;
40465;Laerm;30489;48.982;8.394;2022-10-19T03:02:53;38.67;35.36;41.22;;
40465;Laerm;30489;48.982;8.394;2022-10-19T03:05:03;38.67;35.66;41.30;;
40465;Laerm;30489;48.982;8.394;2022-10-19T03:07:14;38.71;35.66;41.82;;
40465;Laerm;30489;48.982;8.394;2022-10-19T03:09:25;38.62;35.66;42.53;;
40465;Laerm;30489;48.982;8.394;2022-10-19T03:11:35;38.66;35.36;40.98;;
40465;Laerm;30489;48.982;8.394;2022-10-19T03:13:45;38.68;35.66;41.38;;
40465;Laerm;30489;48.982;8.394;2022-10-19T03:15:55;38.66;35.36;41.06;;
40465;Laerm;30489;48.982;8.394;2022-10-19T03:18:06;38.61;35.36;41.14;;
40465;Laerm;30489;48.982;8.394;2022-10-19T03:20:16;38.72;35.66;44.19;;
40465;Laerm;30489;48.982;8.394;2022-10-19T03:22:26;38.68;35.66;40.71;;
40465;Laerm;30489;48.982;8.394;2022-10-19T03:24:36;38.68;35.66;40.89;;
40465;Laerm;30489;48.982;8.394;2022-10-19T03:26:47;38.64;35.36;41.14;;
40465;Laerm;30489;48.982;8.394;2022-10-19T03:28:57;38.65;35.36;40.98;;
40465;Laerm;30489;48.982;8.394;2022-10-19T03:31:07;38.66;35.66;40.98;;
40465;Laerm;30489;48.982;8.394;2022-10-19T03:33:17;38.67;35.04;42.22;;
40465;Laerm;30489;48.982;8.394;2022-10-19T03:35:28;38.61;35.66;42.09;;
40465;Laerm;30489;48.982;8.394;2022-10-19T03:37:38;38.66;35.36;42.29;;
40465;Laerm;30489;48.982;8.394;2022-10-19T03:39:48;38.89;35.66;47.74;;
40465;Laerm;30489;48.982;8.394;2022-10-19T03:41:58;38.81;35.66;50.69;;
40465;Laerm;30489;48.982;8.394;2022-10-19T03:44:09;38.77;35.36;48.54;;
40465;Laerm;30489;48.982;8.394;2022-10-19T03:46:20;38.61;35.36;42.98;;
40465;Laerm;30489;48.982;8.394;2022-10-19T03:48:30;38.72;35.04;51.22;;
40465;Laerm;30489;48.982;8.394;2022-10-19T03:50:41;38.89;36.20;41.46;;
40465;Laerm;30489;48.982;8.394;2022-10-19T03:52:53;38.80;35.66;41.06;;
40465;Laerm;30489;48.982;8.394;2022-10-19T03:55:03;38.71;35.86;40.98;;
40465;Laerm;30489;48.982;8.394;2022-10-19T03:57:14;38.63;35.66;40.98;;
40465;Laerm;30489;48.982;8.394;2022-10-19T03:59:24;38.71;35.04;52.12;;
40465;Laerm;30489;48.982;8.394;2022-10-19T04:01:35;38.70;35.94;41.30;;
40465;Laerm;30489;48.982;8.394;2022-10-19T04:03:46;38.72;35.66;40.80;;
40465;Laerm;30489;48.982;8.394;2022-10-19T04:06:03;38.67;35.86;41.30;;
40465;Laerm;30489;48.982;8.394;2022-10-19T04:08:14;38.67;35.66;40.89;;
40465;Laerm;30489;48.982;8.394;2022-10-19T04:10:24;38.85;35.94;41.14;;
40465;Laerm;30489;48.982;8.394;2022-10-19T04:12:34;39.01;35.36;59.47;;
40465;Laerm;30489;48.982;8.394;2022-10-19T04:14:44;42.71;32.93;68.61;;
40465;Laerm;30489;48.982;8.394;2022-10-19T04:16:54;39.47;35.94;55.30;;
40465;Laerm;30489;48.982;8.394;2022-10-19T04:19:05;39.00;35.66;41.48;;
40465;Laerm;30489;48.982;8.394;2022-10-19T04:21:31;38.80;36.20;41.46;;
40465;Laerm;30489;48.982;8.394;2022-10-19T04:23:42;38.79;35.04;41.82;;
40465;Laerm;30489;48.982;8.394;2022-10-19T04:25:57;38.70;35.66;41.38;;
40465;Laerm;30489;48.982;8.394;2022-10-19T04:28:08;38.61;35.04;40.80;;
40465;Laerm;30489;48.982;8.394;2022-10-19T04:30:18;38.62;35.31;40.80;;
40465;Laerm;30489;48.982;8.394;2022-10-19T04:32:28;38.55;35.66;40.89;;
40465;Laerm;30489;48.982;8.394;2022-10-19T04:34:38;38.57;35.66;40.71;;
40465;Laerm;30489;48.982;8.394;2022-10-19T04:36:49;38.59;35.66;40.80;;
40465;Laerm;30489;48.982;8.394;2022-10-19T04:38:59;38.60;35.36;40.89;;
40465;Laerm;30489;48.982;8.394;2022-10-19T04:41:10;38.61;35.59;40.71;;
40465;Laerm;30489;48.982;8.394;2022-10-19T04:43:21;38.62;35.36;41.82;;
40465;Laerm;30489;48.982;8.394;2022-10-19T04:45:33;38.56;35.04;40.98;;
40465;Laerm;30489;48.982;8.394;2022-10-19T04:47:43;38.56;35.66;40.89;;
40465;Laerm;30489;48.982;8.394;2022-10-19T04:49:54;38.60;35.04;41.41;;
40465;Laerm;30489;48.982;8.394;2022-10-19T04:52:04;38.57;35.36;41.14;;
40465;Laerm;30489;48.982;8.394;2022-10-19T04:54:14;38.57;35.36;40.98;;
40465;Laerm;30489;48.982;8.394;2022-10-19T04:56:25;38.60;35.66;40.71;;
40465;Laerm;30489;48.982;8.394;2022-10-19T04:58:38;38.61;35.04;40.62;;
40465;Laerm;30489;48.982;8.394;2022-10-19T05:00:49;38.64;35.86;40.80;;
40465;Laerm;30489;48.982;8.394;2022-10-19T05:02:59;38.63;35.31;40.80;;
40465;Laerm;30489;48.982;8.394;2022-10-19T05:05:09;38.64;35.66;40.80;;
40465;Laerm;30489;48.982;8.394;2022-10-19T05:07:19;38.78;35.36;42.71;;
40465;Laerm;30489;48.982;8.394;2022-10-19T05:09:30;38.57;35.36;50.09;;
40465;Laerm;30489;48.982;8.394;2022-10-19T05:11:40;38.70;35.36;41.68;;
40465;Laerm;30489;48.982;8.394;2022-10-19T05:13:50;38.63;35.66;41.46;;
40465;Laerm;30489;48.982;8.394;2022-10-19T05:16:01;38.59;35.36;41.14;;
40465;Laerm;30489;48.982;8.394;2022-10-19T05:18:12;38.63;35.36;40.80;;
40465;Laerm;30489;48.982;8.394;2022-10-19T05:20:22;38.58;35.31;41.30;;
40465;Laerm;30489;48.982;8.394;2022-10-19T05:22:32;38.62;35.36;40.88;;
40465;Laerm;30489;48.982;8.394;2022-10-19T05:24:42;38.67;35.66;40.80;;
40465;Laerm;30489;48.982;8.394;2022-10-19T05:26:53;38.65;35.36;41.61;;
40465;Laerm;30489;48.982;8.394;2022-10-19T05:29:03;38.63;35.66;45.36;;
40465;Laerm;30489;48.982;8.394;2022-10-19T05:31:17;38.64;35.36;41.96;;
40465;Laerm;30489;48.982;8.394;2022-10-19T05:33:28;38.73;35.94;41.30;;
40465;Laerm;30489;48.982;8.394;2022-10-19T05:35:38;38.60;35.66;41.82;;
40465;Laerm;30489;48.982;8.394;2022-10-19T05:37:52;38.66;35.04;40.98;;
40465;Laerm;30489;48.982;8.394;2022-10-19T05:40:03;38.70;35.66;42.71;;
40465;Laerm;30489;48.982;8.394;2022-10-19T05:42:13;38.65;35.66;41.06;;
40465;Laerm;30489;48.982;8.394;2022-10-19T05:44:23;38.60;35.66;41.06;;
40465;Laerm;30489;48.982;8.394;2022-10-19T05:46:34;38.65;35.36;40.80;;
40465;Laerm;30489;48.982;8.394;2022-10-19T05:48:44;38.69;35.94;40.71;;
40465;Laerm;30489;48.982;8.394;2022-10-19T05:50:55;38.63;35.66;44.23;;
40465;Laerm;30489;48.982;8.394;2022-10-19T05:53:06;38.75;35.36;46.59;;
40465;Laerm;30489;48.982;8.394;2022-10-19T05:55:16;39.27;35.36;55.23;;
40465;Laerm;30489;48.982;8.394;2022-10-19T05:57:26;43.48;30.89;67.42;;
40465;Laerm;30489;48.982;8.394;2022-10-19T05:59:36;40.68;35.04;64.78;;
40465;Laerm;30489;48.982;8.394;2022-10-19T06:01:46;42.23;35.66;66.83;;
40465;Laerm;30489;48.982;8.394;2022-10-19T06:03:57;44.64;32.93;69.82;;
40465;Laerm;30489;48.982;8.394;2022-10-19T06:06:08;38.74;34.31;46.66;;
40465;Laerm;30489;48.982;8.394;2022-10-19T06:08:19;38.82;35.94;51.83;;
40465;Laerm;30489;48.982;8.394;2022-10-19T06:10:30;38.73;35.36;49.77;;
40465;Laerm;30489;48.982;8.394;2022-10-19T06:12:40;38.72;35.36;41.46;;
40465;Laerm;30489;48.982;8.394;2022-10-19T06:14:50;38.60;35.66;40.98;;
40465;Laerm;30489;48.982;8.394;2022-10-19T06:17:00;38.63;34.69;40.98;;
40465;Laerm;30489;48.982;8.394;2022-10-19T06:19:11;38.64;34.69;40.89;;
40465;Laerm;30489;48.982;8.394;2022-10-19T06:21:22;38.65;35.66;41.22;;
40465;Laerm;30489;48.982;8.394;2022-10-19T06:23:33;38.66;35.66;40.80;;
40465;Laerm;30489;48.982;8.394;2022-10-19T06:25:43;39.51;35.66;59.48;;
40465;Laerm;30489;48.982;8.394;2022-10-19T06:27:54;39.46;35.36;59.48;;
40465;Laerm;30489;48.982;8.394;2022-10-19T06:30:04;44.51;32.35;69.65;;
40465;Laerm;30489;48.982;8.394;2022-10-19T06:32:15;44.68;32.35;69.42;;
40465;Laerm;30489;48.982;8.394;2022-10-19T06:34:25;44.07;35.04;70.46;;
40465;Laerm;30489;48.982;8.394;2022-10-19T06:36:35;46.57;31.68;70.16;;
40465;Laerm;30489;48.982;8.394;2022-10-19T06:38:46;43.48;33.90;68.41;;
40465;Laerm;30489;48.982;8.394;2022-10-19T06:40:59;38.68;35.36;52.40;;
40465;Laerm;30489;48.982;8.394;2022-10-19T06:43:10;38.62;35.31;50.91;;
40465;Laerm;30489;48.982;8.394;2022-10-19T06:45:20;39.67;35.66;64.99;;
40465;Laerm;30489;48.982;8.394;2022-10-19T06:47:30;40.28;34.31;63.61;;
40465;Laerm;30489;48.982;8.394;2022-10-19T06:49:42;43.49;34.69;68.38;;
40465;Laerm;30489;48.982;8.394;2022-10-19T06:51:52;38.94;35.04;53.09;;
40465;Laerm;30489;48.982;8.394;2022-10-19T06:54:02;39.29;35.94;66.60;;
40465;Laerm;30489;48.982;8.394;2022-10-19T06:56:13;46.50;32.93;71.25;;
40465;Laerm;30489;48.982;8.394;2022-10-19T06:58:23;46.91;32.93;70.70;;
40465;Laerm;30489;48.982;8.394;2022-10-19T07:00:34;41.34;34.69;69.94;;
40465;Laerm;30489;48.982;8.394;2022-10-19T07:02:45;41.91;35.66;66.62;;
40465;Laerm;30489;48.982;8.394;2022-10-19T07:04:55;39.30;35.66;59.14;;
40465;Laerm;30489;48.982;8.394;2022-10-19T07:07:05;39.32;35.36;61.31;;
40465;Laerm;30489;48.982;8.394;2022-10-19T07:09:16;38.97;35.66;53.46;;
40465;Laerm;30489;48.982;8.394;2022-10-19T07:11:27;41.34;31.68;69.43;;
40465;Laerm;30489;48.982;8.394;2022-10-19T07:13:38;43.91;33.44;70.00;;
40465;Laerm;30489;48.982;8.394;2022-10-19T07:15:48;45.53;35.36;70.48;;
40465;Laerm;30489;48.982;8.394;2022-10-19T07:17:58;45.17;33.90;71.25;;
40465;Laerm;30489;48.982;8.394;2022-10-19T07:20:09;39.22;35.94;59.70;;
40465;Laerm;30489;48.982;8.394;2022-10-19T07:22:19;38.66;35.94;45.57;;
40465;Laerm;30489;48.982;8.394;2022-10-19T07:24:30;38.55;35.66;42.22;;
40465;Laerm;30489;48.982;8.394;2022-10-19T07:26:40;38.69;35.66;45.91;;
40465;Laerm;30489;48.982;8.394;2022-10-19T07:28:50;38.68;35.66;41.14;;
40465;Laerm;30489;48.982;8.394;2022-10-19T07:31:08;38.77;35.36;42.53;;
40465;Laerm;30489;48.982;8.394;2022-10-19T07:33:18;39.22;35.36;59.40;;
40465;Laerm;30489;48.982;8.394;2022-10-19T07:35:29;38.85;35.36;58.38;;
40465;Laerm;30489;48.982;8.394;2022-10-19T07:37:39;39.47;34.31;62.16;;
40465;Laerm;30489;48.982;8.394;2022-10-19T07:39:49;38.85;35.66;50.54;;
40465;Laerm;30489;48.982;8.394;2022-10-19T07:42:00;38.76;35.66;49.93;;
40465;Laerm;30489;48.982;8.394;2022-10-19T07:44:10;38.83;35.94;51.37;;
40465;Laerm;30489;48.982;8.394;2022-10-19T07:46:22;38.63;35.66;44.23;;
40465;Laerm;30489;48.982;8.394;2022-10-19T07:48:33;38.56;35.36;40.71;;
40465;Laerm;30489;48.982;8.394;2022-10-19T07:50:46;38.58;35.36;40.89;;
40465;Laerm;30489;48.982;8.394;2022-10-19T07:52:56;38.57;35.04;40.62;;
40465;Laerm;30489;48.982;8.394;2022-10-19T07:55:07;38.55;35.36;41.06;;
40465;Laerm;30489;48.982;8.394;2022-10-19T07:57:17;38.66;35.66;41.53;;
40465;Laerm;30489;48.982;8.394;2022-10-19T07:59:27;38.58;35.66;40.71;;
40465;Laerm;30489;48.982;8.394;2022-10-19T08:01:38;38.72;35.94;40.98;;
40465;Laerm;30489;48.982;8.394;2022-10-19T08:03:50;38.71;35.66;40.89;;
40465;Laerm;30489;48.982;8.394;2022-10-19T08:06:02;38.59;35.36;40.80;;
40465;Laerm;30489;48.982;8.394;2022-10-19T08:08:13;38.61;35.66;40.80;;
40465;Laerm;30489;48.982;8.394;2022-10-19T08:10:23;38.64;35.36;40.89;;
40465;Laerm;30489;48.982;8.394;2022-10-19T08:12:34;38.60;35.36;40.80;;
40465;Laerm;30489;48.982;8.394;2022-10-19T08:14:44;38.58;35.66;40.98;;
40465;Laerm;30489;48.982;8.394;2022-10-19T08:16:56;38.59;35.66;40.80;;
40465;Laerm;30489;48.982;8.394;2022-10-19T08:19:08;38.54;35.36;41.96;;
40465;Laerm;30489;48.982;8.394;2022-10-19T08:21:18;38.56;35.66;40.89;;
40465;Laerm;30489;48.982;8.394;2022-10-19T08:23:29;38.60;35.66;40.71;;
40465;Laerm;30489;48.982;8.394;2022-10-19T08:25:39;38.51;35.66;40.62;;
40465;Laerm;30489;48.982;8.394;2022-10-19T08:27:49;38.53;35.66;43.14;;
40465;Laerm;30489;48.982;8.394;2022-10-19T08:29:59;38.53;35.66;40.62;;
40465;Laerm;30489;48.982;8.394;2022-10-19T08:32:10;38.56;35.94;43.86;;
40465;Laerm;30489;48.982;8.394;2022-10-19T08:34:20;38.52;35.66;40.80;;
40465;Laerm;30489;48.982;8.394;2022-10-19T08:36:31;38.57;35.94;40.71;;
40465;Laerm;30489;48.982;8.394;2022-10-19T08:38:41;38.57;35.04;40.71;;
40465;Laerm;30489;48.982;8.394;2022-10-19T08:40:53;38.59;36.20;40.89;;
40465;Laerm;30489;48.982;8.394;2022-10-19T08:47:55;38.58;35.94;41.06;;
40465;Laerm;30489;48.982;8.394;2022-10-19T08:52:31;38.62;35.66;40.98;;
40465;Laerm;30489;48.982;8.394;2022-10-19T08:54:43;38.56;35.66;40.89;;
40465;Laerm;30489;48.982;8.394;2022-10-19T08:57:15;38.56;35.36;40.62;;
40465;Laerm;30489;48.982;8.394;2022-10-19T08:59:36;38.55;35.04;40.89;;
40465;Laerm;30489;48.982;8.394;2022-10-19T09:04:06;38.52;35.66;41.22;;
40465;Laerm;30489;48.982;8.394;2022-10-19T09:08:43;38.58;35.66;40.89;;
40465;Laerm;30489;48.982;8.394;2022-10-19T09:10:53;38.66;35.66;41.38;;
40465;Laerm;30489;48.982;8.394;2022-10-19T09:13:12;38.62;35.36;43.29;;
40465;Laerm;30489;48.982;8.394;2022-10-19T09:15:27;38.65;35.94;41.06;;
40465;Laerm;30489;48.982;8.394;2022-10-19T09:17:38;38.72;35.66;41.30;;
40465;Laerm;30489;48.982;8.394;2022-10-19T09:19:48;38.60;35.94;40.71;;
40465;Laerm;30489;48.982;8.394;2022-10-19T09:24:57;38.55;35.66;40.62;;
40465;Laerm;30489;48.982;8.394;2022-10-19T09:26:46;38.58;35.94;40.80;;
40465;Laerm;30489;48.982;8.394;2022-10-19T09:31:31;38.55;35.66;40.80;;
40465;Laerm;30489;48.982;8.394;2022-10-19T09:33:42;38.55;35.36;40.89;;
40465;Laerm;30489;48.982;8.394;2022-10-19T09:35:53;38.52;35.66;40.53;;
40465;Laerm;30489;48.982;8.394;2022-10-19T09:38:05;38.54;35.04;41.46;;
40465;Laerm;30489;48.982;8.394;2022-10-19T09:40:18;38.59;35.66;40.80;;
40465;Laerm;30489;48.982;8.394;2022-10-19T09:42:29;38.60;35.94;40.62;;
40465;Laerm;30489;48.982;8.394;2022-10-19T09:44:41;38.64;35.36;40.98;;
40465;Laerm;30489;48.982;8.394;2022-10-19T09:49:40;38.62;35.66;40.80;;
40465;Laerm;30489;48.982;8.394;2022-10-19T09:51:51;38.61;35.86;40.89;;
40465;Laerm;30489;48.982;8.394;2022-10-19T09:54:01;38.66;35.66;40.80;;
40465;Laerm;30489;48.982;8.394;2022-10-19T09:56:17;38.64;35.94;40.80;;
40465;Laerm;30489;48.982;8.394;2022-10-19T09:58:28;38.62;35.94;40.80;;
40465;Laerm;30489;48.982;8.394;2022-10-19T10:00:43;38.62;35.94;42.64;;
40465;Laerm;30489;48.982;8.394;2022-10-19T10:02:54;38.62;35.94;40.89;;
40465;Laerm;30489;48.982;8.394;2022-10-19T10:05:05;38.68;35.94;40.80;;
40465;Laerm;30489;48.982;8.394;2022-10-19T10:07:17;38.61;35.94;40.98;;
40465;Laerm;30489;48.982;8.394;2022-10-19T10:09:27;38.64;35.94;40.98;;
40465;Laerm;30489;48.982;8.394;2022-10-19T10:11:38;38.67;35.94;40.98;;
40465;Laerm;30489;48.982;8.394;2022-10-19T10:13:52;38.66;36.10;41.06;;
40465;Laerm;30489;48.982;8.394;2022-10-19T10:16:05;38.64;35.94;40.80;;
40465;Laerm;30489;48.982;8.394;2022-10-19T10:18:16;38.62;35.94;42.29;;
40465;Laerm;30489;48.982;8.394;2022-10-19T10:20:28;38.62;35.66;40.71;;
40465;Laerm;30489;48.982;8.394;2022-10-19T10:22:41;38.65;35.66;40.89;;
40465;Laerm;30489;48.982;8.394;2022-10-19T10:25:01;38.63;35.36;40.62;;
40465;Laerm;30489;48.982;8.394;2022-10-19T10:27:18;38.67;35.94;40.71;;
40465;Laerm;30489;48.982;8.394;2022-10-19T10:29:34;38.68;35.66;40.62;;
40465;Laerm;30489;48.982;8.394;2022-10-19T10:31:46;38.72;35.66;40.89;;
40465;Laerm;30489;48.982;8.394;2022-10-19T10:33:58;38.72;35.66;40.98;;
40465;Laerm;30489;48.982;8.394;2022-10-19T10:36:12;38.68;35.31;40.53;;
40465;Laerm;30489;48.982;8.394;2022-10-19T10:38:24;38.68;36.20;40.88;;
40465;Laerm;30489;48.982;8.394;2022-10-19T10:40:35;38.71;35.66;40.71;;
40465;Laerm;30489;48.982;8.394;2022-10-19T10:42:47;38.73;35.94;40.89;;
40465;Laerm;30489;48.982;8.394;2022-10-19T10:44:57;38.66;35.36;41.82;;
40465;Laerm;30489;48.982;8.394;2022-10-19T10:47:11;38.68;35.36;40.80;;
40465;Laerm;30489;48.982;8.394;2022-10-19T10:49:27;38.69;35.66;41.68;;
40465;Laerm;30489;48.982;8.394;2022-10-19T10:51:38;38.74;35.94;40.80;;
40465;Laerm;30489;48.982;8.394;2022-10-19T10:53:50;38.74;35.94;40.80;;
40465;Laerm;30489;48.982;8.394;2022-10-19T10:56:01;38.70;35.94;40.80;;
40465;Laerm;30489;48.982;8.394;2022-10-19T10:58:15;38.74;35.66;47.70;;
40465;Laerm;30489;48.982;8.394;2022-10-19T11:00:27;38.67;35.66;41.06;;
40465;Laerm;30489;48.982;8.394;2022-10-19T11:02:49;38.72;35.66;41.68;;
40465;Laerm;30489;48.982;8.394;2022-10-19T11:05:03;38.69;35.66;46.13;;
40465;Laerm;30489;48.982;8.394;2022-10-19T11:07:22;38.90;35.94;47.72;;
40465;Laerm;30489;48.982;8.394;2022-10-19T11:09:34;38.91;36.20;46.95;;
40465;Laerm;30489;48.982;8.394;2022-10-19T11:11:46;38.87;35.66;41.14;;
40465;Laerm;30489;48.982;8.394;2022-10-19T11:18:26;38.88;36.56;40.62;;
40465;Laerm;30489;48.982;8.394;2022-10-19T11:20:40;38.96;36.69;40.98;;
40465;Laerm;30489;48.982;8.394;2022-10-19T11:23:36;39.09;36.69;41.22;;
40465;Laerm;30489;48.982;8.394;2022-10-19T11:25:35;39.24;36.69;41.22;;
40465;Laerm;30489;48.982;8.394;2022-10-19T11:28:26;39.22;37.32;40.89;;
40465;Laerm;30489;48.982;8.394;2022-10-19T11:30:28;39.15;36.20;40.89;;
40465;Laerm;30489;48.982;8.394;2022-10-19T11:32:56;39.12;36.69;40.98;;
40465;Laerm;30489;48.982;8.394;2022-10-19T11:35:19;39.15;36.91;40.89;;
40465;Laerm;30489;48.982;8.394;2022-10-19T11:42:33;39.18;37.12;40.89;;
40465;Laerm;30489;48.982;8.394;2022-10-19T11:47:35;39.20;36.91;40.89;;
40465;Laerm;30489;48.982;8.394;2022-10-19T11:52:32;39.17;37.12;41.14;;
40465;Laerm;30489;48.982;8.394;2022-10-19T12:01:47;39.22;36.91;41.03;;
40465;Laerm;30489;48.982;8.394;2022-10-19T12:13:34;39.38;37.32;57.95;;
40465;Laerm;30489;48.982;8.394;2022-10-19T12:15:46;39.38;37.32;54.12;;
40465;Laerm;30489;48.982;8.394;2022-10-19T12:18:33;39.40;37.12;55.46;;
40465;Laerm;30489;48.982;8.394;2022-10-19T12:20:36;39.45;37.12;44.31;;
40465;Laerm;30489;48.982;8.394;2022-10-19T12:22:47;39.39;37.12;40.98;;
40465;Laerm;30489;48.982;8.394;2022-10-19T12:24:58;39.43;37.12;42.41;;
40465;Laerm;30489;48.982;8.394;2022-10-19T12:27:11;39.40;36.91;41.06;;
40465;Laerm;30489;48.982;8.394;2022-10-19T12:29:23;39.37;37.32;40.98;;
40465;Laerm;30489;48.982;8.394;2022-10-19T12:31:34;39.36;37.32;41.06;;
40465;Laerm;30489;48.982;8.394;2022-10-19T12:33:59;39.37;37.12;40.89;;
40465;Laerm;30489;48.982;8.394;2022-10-19T12:38:50;39.42;36.98;41.14;;
40465;Laerm;30489;48.982;8.394;2022-10-19T12:41:06;39.41;36.91;41.22;;
40465;Laerm;30489;48.982;8.394;2022-10-19T12:43:22;39.40;37.32;41.53;;
40465;Laerm;30489;48.982;8.394;2022-10-19T12:45:38;39.44;37.32;42.65;;
40465;Laerm;30489;48.982;8.394;2022-10-19T12:50:47;39.41;37.52;40.89;;
40465;Laerm;30489;48.982;8.394;2022-10-19T12:52:52;39.45;37.12;43.94;;
40465;Laerm;30489;48.982;8.394;2022-10-19T12:57:33;39.41;37.32;41.06;;
40465;Laerm;30489;48.982;8.394;2022-10-19T12:59:43;39.43;37.52;40.98;;
40465;Laerm;30489;48.982;8.394;2022-10-19T13:01:54;39.40;37.12;41.38;;
40465;Laerm;30489;48.982;8.394;2022-10-19T13:04:07;39.44;37.12;40.89;;
40465;Laerm;30489;48.982;8.394;2022-10-19T13:08:34;39.45;37.32;40.96;;
40465;Laerm;30489;48.982;8.394;2022-10-19T13:11:01;39.55;37.32;41.30;;
40465;Laerm;30489;48.982;8.394;2022-10-19T13:15:50;39.66;37.70;42.93;;
40465;Laerm;30489;48.982;8.394;2022-10-19T13:18:01;39.51;37.12;41.38;;
40465;Laerm;30489;48.982;8.394;2022-10-19T13:22:23;39.50;37.70;41.14;;
40465;Laerm;30489;48.982;8.394;2022-10-19T13:24:35;39.51;37.32;41.30;;
40465;Laerm;30489;48.982;8.394;2022-10-19T13:26:45;39.59;37.52;41.14;;
40465;Laerm;30489;48.982;8.394;2022-10-19T13:28:55;39.61;37.52;41.22;;
40465;Laerm;30489;48.982;8.394;2022-10-19T13:31:21;39.62;37.70;49.75;;
40465;Laerm;30489;48.982;8.394;2022-10-19T13:35:43;39.60;37.32;41.06;;
40465;Laerm;30489;48.982;8.394;2022-10-19T13:40:23;39.60;37.52;41.14;;
40465;Laerm;30489;48.982;8.394;2022-10-19T13:42:33;39.68;37.52;52.57;;
40465;Laerm;30489;48.982;8.394;2022-10-19T13:44:43;39.60;37.70;41.38;;
40465;Laerm;30489;48.982;8.394;2022-10-19T13:47:11;39.58;37.32;47.02;;
40465;Laerm;30489;48.982;8.394;2022-10-19T14:10:18;39.56;37.12;41.68;;
40465;Laerm;30489;48.982;8.394;2022-10-19T14:12:30;39.61;37.32;41.30;;